sensor_id;sensor_type;location;lat;lon;timestamp;P1;durP1;ratioP1;P2;durP2;ratioP2
27979;SDS011;15315;50.836;4.430;2023-05-10T00:09:14;16.67;;;8.43;;
27979;SDS011;15315;50.836;4.430;2023-05-10T00:19:14;21.70;;;8.15;;
27979;SDS011;15315;50.836;4.430;2023-05-10T00:29:15;21.85;;;8.55;;
27979;SDS011;15315;50.836;4.430;2023-05-10T00:39:15;17.50;;;8.52;;
27979;SDS011;15315;50.836;4.430;2023-05-10T00:49:15;20.52;;;9.32;;
27979;SDS011;15315;50.836;4.430;2023-05-10T00:59:16;21.48;;;9.15;;
27979;SDS011;15315;50.836;4.430;2023-05-10T01:09:18;20.35;;;10.32;;
27979;SDS011;15315;50.836;4.430;2023-05-10T01:19:21;26.02;;;10.32;;
27979;SDS011;15315;50.836;4.430;2023-05-10T01:40:08;24.95;;;11.80;;
27979;SDS011;15315;50.836;4.430;2023-05-10T01:50:29;22.88;;;11.25;;
27979;SDS011;15315;50.836;4.430;2023-05-10T02:00:32;22.33;;;11.48;;
27979;SDS011;15315;50.836;4.430;2023-05-10T02:10:34;20.90;;;11.73;;
27979;SDS011;15315;50.836;4.430;2023-05-10T02:20:35;21.42;;;12.40;;
27979;SDS011;15315;50.836;4.430;2023-05-10T02:30:37;23.23;;;12.75;;
27979;SDS011;15315;50.836;4.430;2023-05-10T02:40:38;21.88;;;11.82;;
27979;SDS011;15315;50.836;4.430;2023-05-10T02:50:41;24.58;;;10.75;;
27979;SDS011;15315;50.836;4.430;2023-05-10T03:00:44;18.23;;;10.47;;
27979;SDS011;15315;50.836;4.430;2023-05-10T03:21:09;22.23;;;11.48;;
27979;SDS011;15315;50.836;4.430;2023-05-10T03:31:12;34.42;;;13.57;;
27979;SDS011;15315;50.836;4.430;2023-05-10T03:41:13;39.50;;;16.55;;
27979;SDS011;15315;50.836;4.430;2023-05-10T03:51:13;47.92;;;20.08;;
27979;SDS011;15315;50.836;4.430;2023-05-10T04:01:14;60.92;;;22.40;;
27979;SDS011;15315;50.836;4.430;2023-05-10T04:11:14;57.22;;;22.58;;
27979;SDS011;15315;50.836;4.430;2023-05-10T04:21:15;61.72;;;23.73;;
27979;SDS011;15315;50.836;4.430;2023-05-10T04:31:15;61.35;;;25.17;;
27979;SDS011;15315;50.836;4.430;2023-05-10T04:41:16;63.25;;;25.88;;
27979;SDS011;15315;50.836;4.430;2023-05-10T04:51:16;59.45;;;26.48;;
27979;SDS011;15315;50.836;4.430;2023-05-10T05:01:16;54.70;;;24.98;;
27979;SDS011;15315;50.836;4.430;2023-05-10T05:11:17;60.75;;;26.75;;
27979;SDS011;15315;50.836;4.430;2023-05-10T05:21:18;57.53;;;26.42;;
27979;SDS011;15315;50.836;4.430;2023-05-10T05:31:19;59.47;;;25.83;;
27979;SDS011;15315;50.836;4.430;2023-05-10T05:41:20;34.38;;;15.35;;
27979;SDS011;15315;50.836;4.430;2023-05-10T05:51:21;27.40;;;15.07;;
27979;SDS011;15315;50.836;4.430;2023-05-10T06:01:21;31.40;;;14.95;;
27979;SDS011;15315;50.836;4.430;2023-05-10T06:11:22;32.53;;;17.02;;
27979;SDS011;15315;50.836;4.430;2023-05-10T06:21:22;22.70;;;13.50;;
27979;SDS011;15315;50.836;4.430;2023-05-10T06:31:23;26.55;;;11.00;;
27979;SDS011;15315;50.836;4.430;2023-05-10T06:41:23;17.40;;;7.82;;
27979;SDS011;15315;50.836;4.430;2023-05-10T06:51:24;13.32;;;5.95;;
27979;SDS011;15315;50.836;4.430;2023-05-10T07:01:24;11.38;;;5.22;;
27979;SDS011;15315;50.836;4.430;2023-05-10T07:11:24;16.15;;;7.68;;
27979;SDS011;15315;50.836;4.430;2023-05-10T07:21:25;16.58;;;8.77;;
27979;SDS011;15315;50.836;4.430;2023-05-10T07:31:28;19.02;;;8.75;;
27979;SDS011;15315;50.836;4.430;2023-05-10T07:41:28;17.25;;;9.52;;
27979;SDS011;15315;50.836;4.430;2023-05-10T07:51:29;20.27;;;10.50;;
27979;SDS011;15315;50.836;4.430;2023-05-10T08:01:30;17.70;;;8.55;;
27979;SDS011;15315;50.836;4.430;2023-05-10T08:11:32;15.77;;;8.43;;
27979;SDS011;15315;50.836;4.430;2023-05-10T08:21:32;17.17;;;8.13;;
27979;SDS011;15315;50.836;4.430;2023-05-10T08:31:33;16.40;;;8.13;;
27979;SDS011;15315;50.836;4.430;2023-05-10T08:41:33;12.70;;;6.90;;
27979;SDS011;15315;50.836;4.430;2023-05-10T08:51:37;9.35;;;5.30;;
27979;SDS011;15315;50.836;4.430;2023-05-10T09:01:43;8.55;;;5.25;;
27979;SDS011;15315;50.836;4.430;2023-05-10T09:11:46;9.27;;;5.95;;
27979;SDS011;15315;50.836;4.430;2023-05-10T09:21:47;9.82;;;6.15;;
27979;SDS011;15315;50.836;4.430;2023-05-10T09:31:52;10.52;;;7.03;;
27979;SDS011;15315;50.836;4.430;2023-05-10T09:41:54;8.63;;;6.35;;
27979;SDS011;15315;50.836;4.430;2023-05-10T09:52:02;7.68;;;4.60;;
27979;SDS011;15315;50.836;4.430;2023-05-10T10:02:04;5.05;;;3.92;;
27979;SDS011;15315;50.836;4.430;2023-05-10T10:12:05;8.93;;;3.67;;
27979;SDS011;15315;50.836;4.430;2023-05-10T10:22:05;8.15;;;3.65;;
27979;SDS011;15315;50.836;4.430;2023-05-10T10:32:11;6.90;;;3.40;;
27979;SDS011;15315;50.836;4.430;2023-05-10T10:52:47;4.35;;;3.17;;
27979;SDS011;15315;50.836;4.430;2023-05-10T11:02:50;4.60;;;3.40;;
27979;SDS011;15315;50.836;4.430;2023-05-10T11:12:59;6.25;;;4.40;;
27979;SDS011;15315;50.836;4.430;2023-05-10T11:23:11;5.75;;;3.97;;
27979;SDS011;15315;50.836;4.430;2023-05-10T11:33:16;7.47;;;4.18;;
27979;SDS011;15315;50.836;4.430;2023-05-10T11:43:17;8.05;;;4.75;;
27979;SDS011;15315;50.836;4.430;2023-05-10T11:53:19;4.88;;;3.65;;
27979;SDS011;15315;50.836;4.430;2023-05-10T12:03:20;5.88;;;3.58;;
27979;SDS011;15315;50.836;4.430;2023-05-10T12:13:20;4.57;;;3.83;;
27979;SDS011;15315;50.836;4.430;2023-05-10T12:23:21;6.18;;;3.90;;
27979;SDS011;15315;50.836;4.430;2023-05-10T12:33:21;5.47;;;3.78;;
27979;SDS011;15315;50.836;4.430;2023-05-10T12:43:22;4.90;;;4.03;;
27979;SDS011;15315;50.836;4.430;2023-05-10T12:53:22;8.87;;;4.73;;
27979;SDS011;15315;50.836;4.430;2023-05-10T13:03:23;7.72;;;5.50;;
27979;SDS011;15315;50.836;4.430;2023-05-10T13:13:23;7.43;;;4.35;;
27979;SDS011;15315;50.836;4.430;2023-05-10T13:23:24;9.32;;;4.72;;
27979;SDS011;15315;50.836;4.430;2023-05-10T13:33:24;7.40;;;3.47;;
27979;SDS011;15315;50.836;4.430;2023-05-10T13:43:24;6.80;;;3.47;;
27979;SDS011;15315;50.836;4.430;2023-05-10T13:53:25;8.77;;;4.85;;
27979;SDS011;15315;50.836;4.430;2023-05-10T14:03:25;13.18;;;5.50;;
27979;SDS011;15315;50.836;4.430;2023-05-10T14:13:26;9.43;;;6.63;;
27979;SDS011;15315;50.836;4.430;2023-05-10T14:23:26;12.85;;;7.68;;
27979;SDS011;15315;50.836;4.430;2023-05-10T14:33:28;13.45;;;7.68;;
27979;SDS011;15315;50.836;4.430;2023-05-10T14:43:28;17.17;;;11.50;;
27979;SDS011;15315;50.836;4.430;2023-05-10T14:53:30;15.73;;;10.00;;
27979;SDS011;15315;50.836;4.430;2023-05-10T15:03:30;15.68;;;11.60;;
27979;SDS011;15315;50.836;4.430;2023-05-10T15:13:31;13.57;;;9.85;;
27979;SDS011;15315;50.836;4.430;2023-05-10T15:23:31;8.20;;;4.22;;
27979;SDS011;15315;50.836;4.430;2023-05-10T15:33:32;10.77;;;4.20;;
27979;SDS011;15315;50.836;4.430;2023-05-10T15:43:32;8.70;;;4.00;;
27979;SDS011;15315;50.836;4.430;2023-05-10T15:53:33;8.18;;;3.30;;
27979;SDS011;15315;50.836;4.430;2023-05-10T16:03:33;8.25;;;3.58;;
27979;SDS011;15315;50.836;4.430;2023-05-10T16:13:33;12.98;;;4.28;;
27979;SDS011;15315;50.836;4.430;2023-05-10T16:23:34;13.43;;;4.80;;
27979;SDS011;15315;50.836;4.430;2023-05-10T16:33:34;19.55;;;7.35;;
27979;SDS011;15315;50.836;4.430;2023-05-10T16:43:35;13.77;;;6.40;;
27979;SDS011;15315;50.836;4.430;2023-05-10T16:53:36;15.73;;;7.57;;
27979;SDS011;15315;50.836;4.430;2023-05-10T17:03:37;19.38;;;8.43;;
27979;SDS011;15315;50.836;4.430;2023-05-10T17:13:38;35.55;;;14.80;;
27979;SDS011;15315;50.836;4.430;2023-05-10T17:23:39;20.08;;;8.68;;
27979;SDS011;15315;50.836;4.430;2023-05-10T17:33:39;22.00;;;10.18;;
27979;SDS011;15315;50.836;4.430;2023-05-10T17:43:39;23.95;;;10.43;;
27979;SDS011;15315;50.836;4.430;2023-05-10T17:53:40;27.63;;;12.98;;
27979;SDS011;15315;50.836;4.430;2023-05-10T18:03:40;26.85;;;12.27;;
27979;SDS011;15315;50.836;4.430;2023-05-10T18:13:41;24.73;;;11.18;;
27979;SDS011;15315;50.836;4.430;2023-05-10T18:23:41;25.48;;;12.50;;
27979;SDS011;15315;50.836;4.430;2023-05-10T18:33:41;31.33;;;14.80;;
27979;SDS011;15315;50.836;4.430;2023-05-10T18:43:42;33.70;;;16.73;;
27979;SDS011;15315;50.836;4.430;2023-05-10T18:53:42;42.80;;;19.42;;
27979;SDS011;15315;50.836;4.430;2023-05-10T19:03:42;50.33;;;24.67;;
27979;SDS011;15315;50.836;4.430;2023-05-10T19:13:43;60.95;;;28.75;;
27979;SDS011;15315;50.836;4.430;2023-05-10T19:23:44;55.65;;;26.98;;
27979;SDS011;15315;50.836;4.430;2023-05-10T19:33:45;47.90;;;25.73;;
27979;SDS011;15315;50.836;4.430;2023-05-10T19:43:45;49.17;;;22.83;;
27979;SDS011;15315;50.836;4.430;2023-05-10T19:53:46;50.92;;;20.95;;
27979;SDS011;15315;50.836;4.430;2023-05-10T20:03:46;42.67;;;19.58;;
27979;SDS011;15315;50.836;4.430;2023-05-10T20:13:46;44.92;;;22.88;;
27979;SDS011;15315;50.836;4.430;2023-05-10T20:23:47;57.78;;;27.58;;
27979;SDS011;15315;50.836;4.430;2023-05-10T20:33:47;47.40;;;23.42;;
27979;SDS011;15315;50.836;4.430;2023-05-10T20:43:48;52.58;;;23.98;;
27979;SDS011;15315;50.836;4.430;2023-05-10T20:53:48;41.42;;;19.88;;
27979;SDS011;15315;50.836;4.430;2023-05-10T21:03:48;44.40;;;20.73;;
27979;SDS011;15315;50.836;4.430;2023-05-10T21:13:49;37.65;;;17.73;;
27979;SDS011;15315;50.836;4.430;2023-05-10T21:23:50;49.65;;;22.10;;
27979;SDS011;15315;50.836;4.430;2023-05-10T21:33:50;57.55;;;26.08;;
27979;SDS011;15315;50.836;4.430;2023-05-10T21:43:50;53.85;;;24.98;;
27979;SDS011;15315;50.836;4.430;2023-05-10T21:53:51;60.03;;;26.38;;
27979;SDS011;15315;50.836;4.430;2023-05-10T22:03:51;53.60;;;27.57;;
27979;SDS011;15315;50.836;4.430;2023-05-10T22:13:52;50.83;;;22.50;;
27979;SDS011;15315;50.836;4.430;2023-05-10T22:23:52;43.17;;;21.10;;
27979;SDS011;15315;50.836;4.430;2023-05-10T22:33:52;42.22;;;20.35;;
27979;SDS011;15315;50.836;4.430;2023-05-10T22:43:53;39.53;;;19.60;;
27979;SDS011;15315;50.836;4.430;2023-05-10T22:53:54;42.40;;;18.23;;
27979;SDS011;15315;50.836;4.430;2023-05-10T23:03:54;32.22;;;15.50;;
27979;SDS011;15315;50.836;4.430;2023-05-10T23:13:55;32.42;;;14.95;;
27979;SDS011;15315;50.836;4.430;2023-05-10T23:23:55;27.88;;;14.18;;
27979;SDS011;15315;50.836;4.430;2023-05-10T23:33:56;26.48;;;13.68;;
27979;SDS011;15315;50.836;4.430;2023-05-10T23:43:56;29.02;;;14.23;;
27979;SDS011;15315;50.836;4.430;2023-05-10T23:53:56;31.42;;;15.43;;
